»·PEaware :: SKW3131 KPHX-KSGU

SKW3131 :: KPHX-KSGU

FLIGHT INFORMATION

Flight Status: Arrived
Operator:
SkyWest Airlines
More flights by this operator :: More flights under this callsign
Pilot: Jack B. (5846)
Aircraft: CANADAIR CL-600 CRJ-200
(CRJ2)
More flights by this aircraft type
Origin: KPHX Phoenix Sky Harbor Intl
United States
Destination: KSGU St George Mun
United States
More flights between these airports :: More routes between these airports
Route: +QUAKY1 GCN ETYIR HOLUK
File this flight plan on PilotEdge
Remarks:
Altitude:
(Current/Filed)
280ft
Speed:
(Current/Filed)
320kts
Departed: 20-May-19 01:36 PM
Arrived: 20-May-19 02:26 PM
Distance/Time
Traveled:
228nm/0:50
Distance/Time
To Go:
Arrived

Flight Plot

Page will automatically refresh every two minutes.

Flight plan parsing failed; only flown route is shown


Map Options




Map Legend


Flown Route
Filed Route
Departure Airport
Arrival Airport
Navaid (VOR, NDB)
Fix

Horizontal Profiles

Position Reports

Time Latitude Longitude Heading Altitude Ground
Speed
20-May-19 13:19 33.436536 -111.993204 180 1127ft 0kts
20-May-19 13:20 33.436536 -111.993204 180 1127ft 0kts
20-May-19 13:21 33.436536 -111.993204 180 1127ft 0kts
20-May-19 13:22 33.436536 -111.993204 180 1127ft 0kts
20-May-19 13:23 33.436536 -111.993204 180 1127ft 0kts
20-May-19 13:24 33.436536 -111.993204 180 1127ft 0kts
20-May-19 13:25 33.436536 -111.993204 180 1127ft 0kts
20-May-19 13:26 33.436536 -111.993204 180 1127ft 0kts
20-May-19 13:26 33.436536 -111.993204 180 1127ft 0kts
20-May-19 13:28 33.436536 -111.993204 180 1127ft 0kts
20-May-19 13:29 33.436536 -111.993204 180 1127ft 0kts
20-May-19 13:29 33.436536 -111.993204 180 1127ft 0kts
20-May-19 13:30 33.436808 -111.993204 180 1128ft 0kts
20-May-19 13:31 33.437109 -111.993210 167 1129ft 0kts
20-May-19 13:32 33.437047 -111.993159 133 1129ft 1kts
20-May-19 13:33 33.438447 -111.993002 357 1134ft 3kts
20-May-19 13:34 33.439745 -111.992273 1 1139ft 0kts
20-May-19 13:35 33.440829 -111.995767 268 1141ft 71kts
20-May-19 13:36 33.441226 -112.041925 267 2471ft 165kts
20-May-19 13:37 33.442633 -112.106030 268 4414ft 222kts
20-May-19 13:38 33.450335 -112.179950 305 7199ft 238kts
20-May-19 13:39 33.520068 -112.195322 356 9313ft 281kts
20-May-19 13:40 33.599803 -112.174994 13 11348ft 307kts
20-May-19 13:41 33.666365 -112.105545 42 13396ft 328kts
20-May-19 13:42 33.729887 -112.025110 42 15412ft 337kts
20-May-19 13:43 33.813908 -111.988761 4 17181ft 328kts
20-May-19 13:44 33.904250 -111.970885 3 18903ft 332kts
20-May-19 13:45 33.995659 -111.953483 2 20476ft 335kts
20-May-19 13:46 34.087664 -111.936511 355 21996ft 331kts
20-May-19 13:47 34.177081 -111.944905 348 23489ft 322kts
20-May-19 13:48 34.265941 -111.954634 347 24811ft 321kts
20-May-19 13:49 34.353895 -111.964353 347 26122ft 316kts
20-May-19 13:50 34.440336 -111.973913 347 27427ft 308kts
20-May-19 13:51 34.526246 -111.983454 347 27895ft 324kts
20-May-19 13:52 34.620015 -111.993841 347 27897ft 354kts
20-May-19 13:53 34.721571 -112.005099 348 27895ft 380kts
20-May-19 13:54 34.829754 -112.017202 348 27894ft 402kts
20-May-19 13:55 34.943387 -112.030093 350 27898ft 420kts
20-May-19 13:56 35.061518 -112.043417 352 27910ft 435kts
20-May-19 13:57 35.183307 -112.057137 352 27914ft 447kts
20-May-19 13:58 35.308373 -112.071353 352 27913ft 456kts
20-May-19 13:59 35.435562 -112.084770 353 27903ft 461kts
20-May-19 14:00 35.563061 -112.098155 352 27886ft 461kts
20-May-19 14:01 35.690210 -112.113348 352 27887ft 462kts
20-May-19 14:02 35.817606 -112.128661 352 27889ft 463kts
20-May-19 14:03 35.946093 -112.144147 352 27885ft 462kts
20-May-19 14:04 36.068486 -112.177115 344 27887ft 448kts
20-May-19 14:05 36.188404 -112.214509 333 27872ft 445kts
20-May-19 14:06 36.252520 -112.339131 272 26590ft 466kts
20-May-19 14:07 36.286672 -112.490118 299 25029ft 470kts
20-May-19 14:08 36.347570 -112.626984 299 23881ft 442kts
20-May-19 14:09 36.406654 -112.760185 299 23841ft 446kts
20-May-19 14:10 36.466056 -112.894699 299 22587ft 444kts
20-May-19 14:11 36.523131 -113.024439 301 20182ft 418kts
20-May-19 14:12 36.577381 -113.147522 300 17771ft 400kts
20-May-19 14:13 36.630042 -113.267759 300 15391ft 393kts
20-May-19 14:14 36.681734 -113.386536 299 13008ft 389kts
20-May-19 14:15 36.732344 -113.503261 299 10904ft 379kts
20-May-19 14:16 36.756975 -113.611658 277 10032ft 294kts
20-May-19 14:17 36.804776 -113.665090 16 8468ft 253kts
20-May-19 14:18 36.863021 -113.629364 23 8037ft 245kts
20-May-19 14:19 36.922705 -113.593100 22 6447ft 236kts
20-May-19 14:20 36.984658 -113.558560 24 4731ft 244kts
20-May-19 14:21 37.041826 -113.524188 19 3838ft 203kts
20-May-19 14:22 37.091584 -113.511641 5 3824ft 163kts
20-May-19 14:23 37.085355 -113.479081 201 3735ft 183kts
20-May-19 14:24 37.044319 -113.506242 204 2866ft 145kts
20-May-19 14:25 37.031243 -113.511362 117 2866ft 14kts
20-May-19 14:26 37.030961 -113.509685 152 2858ft 0kts
20-May-19 14:27 37.030961 -113.509685 152 2858ft 0kts

Navigation Log

Ident Type
Flight plan parsing failed, navigation log unavailable